createdAt,value
2019-05-13T00:00:13.961Z,0
2019-05-13T00:01:17.048Z,0
2019-05-13T00:02:13.314Z,0
2019-05-13T00:03:13.572Z,0
2019-05-13T00:04:13.916Z,0
2019-05-13T00:05:14.330Z,0
2019-05-13T00:06:13.369Z,0
2019-05-13T00:07:13.410Z,0
2019-05-13T00:08:13.721Z,0
2019-05-13T00:09:13.929Z,0
2019-05-13T00:10:14.574Z,0
2019-05-13T00:11:13.600Z,0
2019-05-13T00:12:13.722Z,0
2019-05-13T00:13:14.444Z,0
2019-05-13T00:14:13.377Z,0
2019-05-13T00:15:13.752Z,0
2019-05-13T00:16:13.930Z,0
2019-05-13T00:17:14.535Z,0
2019-05-13T00:18:14.133Z,0
2019-05-13T00:19:14.214Z,0
2019-05-13T00:20:13.827Z,0
2019-05-13T00:21:13.797Z,0
2019-05-13T00:22:14.033Z,0
2019-05-13T00:23:14.194Z,0
2019-05-13T00:24:13.772Z,0
2019-05-13T00:29:28.791Z,0
2019-05-13T00:30:44.170Z,0
2019-05-13T00:31:43.691Z,0
2019-05-13T00:32:41.525Z,0
2019-05-13T00:33:44.164Z,0
2019-05-13T00:34:44.328Z,0
2019-05-13T00:35:44.002Z,0
2019-05-13T00:36:44.267Z,0
2019-05-13T00:37:43.681Z,0
2019-05-13T00:38:43.534Z,0
2019-05-13T00:39:43.588Z,0
2019-05-13T00:40:43.984Z,0
2019-05-13T00:41:44.061Z,0
2019-05-13T00:44:49.528Z,0
2019-05-13T00:45:01.146Z,0
2019-05-13T00:46:03.835Z,0
2019-05-13T00:47:04.160Z,0
2019-05-13T00:48:03.846Z,0
2019-05-13T00:49:04.551Z,0
2019-05-13T00:50:03.617Z,0
2019-05-13T00:51:03.690Z,0
2019-05-13T00:52:03.461Z,0
2019-05-13T00:53:03.698Z,0
2019-05-13T00:54:16.013Z,0
2019-05-13T00:55:03.740Z,0
2019-05-13T00:56:01.459Z,0
2019-05-13T00:57:04.101Z,0
2019-05-13T00:58:04.219Z,0
2019-05-13T00:59:03.659Z,0
2019-05-13T01:00:03.474Z,0
2019-05-13T01:01:03.563Z,0
2019-05-13T01:02:03.362Z,0
2019-05-13T01:03:01.266Z,0
2019-05-13T01:04:03.730Z,0
2019-05-13T01:05:03.774Z,0
2019-05-13T01:06:01.328Z,0
2019-05-13T01:07:04.097Z,0
2019-05-13T01:08:03.886Z,0
2019-05-13T01:09:04.008Z,0
2019-05-13T01:10:04.187Z,0
2019-05-13T01:11:03.970Z,0
2019-05-13T01:12:01.573Z,0
2019-05-13T01:13:04.258Z,0
2019-05-13T01:14:04.064Z,0
2019-05-13T01:15:01.311Z,0
2019-05-13T01:16:03.665Z,0
2019-05-13T01:17:03.816Z,0
2019-05-13T01:18:03.684Z,0
2019-05-13T01:19:04.002Z,0
2019-05-13T01:20:03.930Z,0
2019-05-13T01:21:03.822Z,0
2019-05-13T01:22:03.492Z,0
2019-05-13T01:23:03.545Z,0
2019-05-13T01:24:16.977Z,0
2019-05-13T01:29:18.766Z,0
2019-05-13T01:30:31.600Z,0
2019-05-13T01:31:34.190Z,0
2019-05-13T01:32:34.169Z,0
2019-05-13T01:33:31.846Z,0
2019-05-13T01:34:33.756Z,0
2019-05-13T01:35:33.931Z,0
2019-05-13T01:36:31.341Z,0
2019-05-13T01:37:48.822Z,0
2019-05-13T01:38:33.942Z,0
2019-05-13T01:39:34.639Z,0
2019-05-13T01:40:34.033Z,0
2019-05-13T01:41:33.347Z,0
2019-05-13T01:42:33.645Z,0
2019-05-13T01:43:33.498Z,0
2019-05-13T01:44:33.477Z,0
2019-05-13T01:45:33.680Z,0
2019-05-13T01:46:34.492Z,0
2019-05-13T01:47:34.377Z,0
2019-05-13T01:48:33.261Z,0
2019-05-13T01:49:33.622Z,0
2019-05-13T01:50:33.694Z,0
2019-05-13T01:51:33.394Z,0
2019-05-13T01:52:31.660Z,0
2019-05-13T01:53:33.567Z,0
2019-05-13T01:54:29.974Z,0
2019-05-13T01:55:33.841Z,0
2019-05-13T01:56:33.790Z,0
2019-05-13T01:57:34.105Z,0
2019-05-13T01:58:33.716Z,0
2019-05-13T01:59:33.953Z,0
2019-05-13T02:00:34.904Z,0
2019-05-13T02:01:33.604Z,0
2019-05-13T02:02:33.639Z,0
2019-05-13T02:03:33.769Z,0
2019-05-13T02:04:33.519Z,0
2019-05-13T02:05:33.884Z,0
2019-05-13T02:06:33.552Z,0
2019-05-13T02:07:33.511Z,0
2019-05-13T02:08:33.620Z,0
2019-05-13T02:09:33.650Z,0
2019-05-13T02:10:29.891Z,0
2019-05-13T02:11:33.966Z,0
2019-05-13T02:12:33.857Z,0
2019-05-13T02:13:34.278Z,0
2019-05-13T02:14:33.454Z,0
2019-05-13T02:15:33.747Z,0
2019-05-13T02:16:33.761Z,0
2019-05-13T02:17:36.366Z,0
2019-05-13T02:18:34.110Z,0
2019-05-13T02:19:33.549Z,0
2019-05-13T02:20:33.494Z,0
2019-05-13T02:21:33.603Z,0
2019-05-13T02:22:33.607Z,0
2019-05-13T02:23:33.808Z,0
2019-05-13T02:24:33.481Z,0
2019-05-13T02:25:33.579Z,0
2019-05-13T02:26:34.339Z,0
2019-05-13T02:27:31.043Z,0
2019-05-13T02:28:33.341Z,0
2019-05-13T02:29:34.196Z,0
2019-05-13T02:30:34.867Z,0
2019-05-13T02:32:05.207Z,0
2019-05-13T02:32:35.456Z,0
2019-05-13T02:33:36.754Z,0
2019-05-13T02:34:35.002Z,0
2019-05-13T02:35:35.231Z,0
2019-05-13T02:36:35.646Z,0
2019-05-13T02:37:42.492Z,0
2019-05-13T02:38:45.408Z,0
2019-05-13T02:39:35.582Z,0
2019-05-13T02:40:35.414Z,0
2019-05-13T02:41:36.664Z,0
2019-05-13T02:42:35.552Z,0
2019-05-13T02:43:36.049Z,0
2019-05-13T02:44:36.066Z,0
2019-05-13T02:45:36.034Z,0
2019-05-13T02:46:36.614Z,0
2019-05-13T02:47:35.739Z,0
2019-05-13T02:48:35.829Z,0
2019-05-13T02:49:35.225Z,0
2019-05-13T02:50:36.271Z,0
2019-05-13T02:51:35.603Z,0
2019-05-13T02:52:36.181Z,0
2019-05-13T02:53:33.466Z,0
2019-05-13T02:54:37.035Z,0
2019-05-13T02:55:35.621Z,0
2019-05-13T02:56:35.755Z,0
2019-05-13T02:57:37.747Z,0
2019-05-13T02:58:36.174Z,0
2019-05-13T02:59:36.126Z,0
2019-05-13T03:00:32.837Z,0
2019-05-13T03:01:35.893Z,0
2019-05-13T03:02:35.526Z,0
2019-05-13T03:03:35.414Z,0
2019-05-13T03:04:32.479Z,0
2019-05-13T03:05:34.727Z,0
2019-05-13T03:06:36.049Z,0
2019-05-13T03:07:36.112Z,0
2019-05-13T03:09:02.942Z,0
2019-05-13T03:09:35.214Z,0
2019-05-13T03:10:35.786Z,0
2019-05-13T03:11:35.858Z,0
2019-05-13T03:12:34.959Z,0
2019-05-13T03:13:35.906Z,0
2019-05-13T03:14:37.408Z,0
2019-05-13T03:15:35.486Z,0
2019-05-13T03:16:32.411Z,0
2019-05-13T03:17:39.046Z,0
2019-05-13T03:18:36.166Z,0
2019-05-13T03:19:35.889Z,0
2019-05-13T03:20:36.017Z,0
2019-05-13T03:21:35.399Z,0
2019-05-13T03:22:35.381Z,0
2019-05-13T03:23:35.503Z,0
2019-05-13T03:24:35.778Z,0
2019-05-13T03:25:35.881Z,0
2019-05-13T03:26:34.747Z,0
2019-05-13T03:27:38.661Z,0
2019-05-13T03:28:36.146Z,0
2019-05-13T03:29:35.806Z,0
2019-05-13T03:30:44.926Z,0
2019-05-13T03:31:46.146Z,0
2019-05-13T03:33:10.642Z,0
2019-05-13T03:33:48.519Z,0
2019-05-13T03:34:48.064Z,0
2019-05-13T03:35:54.693Z,0
2019-05-13T03:36:48.083Z,0
2019-05-13T03:37:42.271Z,0
2019-05-13T03:38:55.468Z,0
2019-05-13T03:39:35.959Z,0
2019-05-13T03:40:35.636Z,0
2019-05-13T03:41:35.617Z,0
2019-05-13T03:42:36.002Z,0
2019-05-13T03:43:35.221Z,0
2019-05-13T03:44:37.669Z,0
2019-05-13T03:45:35.327Z,0
2019-05-13T03:46:36.026Z,0
2019-05-13T03:47:35.556Z,0
2019-05-13T03:48:36.012Z,0
2019-05-13T03:49:32.613Z,0
2019-05-13T03:50:39.303Z,0
2019-05-13T03:51:35.440Z,0
2019-05-13T03:52:36.368Z,0
2019-05-13T03:53:32.488Z,0
2019-05-13T03:54:35.533Z,0
2019-05-13T03:55:35.583Z,0
2019-05-13T03:56:37.951Z,0
2019-05-13T03:57:36.422Z,0
2019-05-13T03:58:34.986Z,0
2019-05-13T03:59:36.055Z,0
2019-05-13T04:00:34.860Z,0
2019-05-13T04:01:35.355Z,0
2019-05-13T04:02:35.255Z,0
2019-05-13T04:03:35.855Z,0
2019-05-13T04:04:35.186Z,0
2019-05-13T04:05:36.216Z,0
2019-05-13T04:06:35.078Z,0
2019-05-13T04:07:35.189Z,0
2019-05-13T04:08:35.424Z,0
2019-05-13T04:09:45.194Z,0
2019-05-13T04:10:36.214Z,0
2019-05-13T04:11:35.777Z,0
2019-05-13T04:12:38.625Z,0
2019-05-13T04:13:36.271Z,0
2019-05-13T04:14:36.197Z,0
2019-05-13T04:15:37.129Z,0
2019-05-13T04:16:37.496Z,0
2019-05-13T04:17:34.724Z,0
2019-05-13T04:18:37.164Z,0
2019-05-13T04:19:36.370Z,0
2019-05-13T04:20:36.035Z,0
2019-05-13T04:21:36.505Z,0
2019-05-13T04:22:35.941Z,0
2019-05-13T04:23:35.171Z,0
2019-05-13T04:24:42.595Z,0
2019-05-13T04:25:39.280Z,0
2019-05-13T04:26:35.026Z,5
2019-05-13T04:27:35.405Z,5
2019-05-13T04:28:35.872Z,5
2019-05-13T04:29:35.461Z,5
2019-05-13T04:30:35.761Z,5
2019-05-13T04:31:36.022Z,5
2019-05-13T04:32:38.859Z,5
2019-05-13T04:33:36.163Z,5
2019-05-13T04:34:36.563Z,5
2019-05-13T04:35:36.104Z,5
2019-05-13T04:36:37.352Z,5
2019-05-13T04:37:35.677Z,5
2019-05-13T04:38:35.929Z,5
2019-05-13T04:40:03.647Z,5
2019-05-13T04:40:35.879Z,5
2019-05-13T04:41:35.915Z,5
2019-05-13T04:42:36.016Z,5
2019-05-13T04:43:42.906Z,5
2019-05-13T04:44:34.901Z,5
2019-05-13T04:45:35.566Z,5
2019-05-13T04:46:35.582Z,5
2019-05-13T04:47:35.887Z,5
2019-05-13T04:48:39.372Z,5
2019-05-13T04:49:37.721Z,5
2019-05-13T04:50:35.710Z,5
2019-05-13T04:51:35.647Z,5
2019-05-13T04:52:35.756Z,5
2019-05-13T04:53:36.094Z,5
2019-05-13T04:54:36.257Z,5
2019-05-13T04:55:36.029Z,5
2019-05-13T04:56:35.719Z,10
2019-05-13T04:57:35.893Z,10
2019-05-13T04:58:34.913Z,10
2019-05-13T04:59:40.210Z,10
2019-05-13T05:00:34.988Z,10
2019-05-13T05:01:55.012Z,10
2019-05-13T05:02:58.025Z,10
2019-05-13T05:03:53.020Z,10
2019-05-13T05:04:46.115Z,10
2019-05-13T05:05:35.339Z,10
2019-05-13T05:06:35.852Z,10
2019-05-13T05:07:35.396Z,10
2019-05-13T05:08:35.608Z,10
2019-05-13T05:09:40.148Z,10
2019-05-13T05:10:53.924Z,10
2019-05-13T05:11:42.298Z,10
2019-05-13T05:12:31.990Z,10
2019-05-13T05:13:35.035Z,10
2019-05-13T05:14:35.235Z,10
2019-05-13T05:15:32.359Z,15
2019-05-13T05:16:35.241Z,15
2019-05-13T05:17:35.450Z,15
2019-05-13T05:18:35.201Z,15
2019-05-13T05:19:37.284Z,15
2019-05-13T05:20:34.857Z,15
2019-05-13T05:21:34.737Z,15
2019-05-13T05:22:34.069Z,15
2019-05-13T05:23:34.473Z,15
2019-05-13T05:24:43.976Z,15
2019-05-13T05:25:35.024Z,15
2019-05-13T05:26:34.015Z,20
2019-05-13T05:27:34.296Z,20
2019-05-13T05:28:34.580Z,20
2019-05-13T05:29:34.709Z,20
2019-05-13T05:30:34.778Z,20
2019-05-13T05:31:32.520Z,20
2019-05-13T05:32:35.985Z,20
2019-05-13T05:33:34.485Z,20
2019-05-13T05:34:34.778Z,20
2019-05-13T05:35:35.095Z,20
2019-05-13T05:36:34.675Z,20
2019-05-13T05:37:33.938Z,20
2019-05-13T05:38:37.066Z,20
2019-05-13T05:39:31.507Z,20
2019-05-13T05:40:45.162Z,20
2019-05-13T05:41:34.333Z,20
2019-05-13T05:42:32.271Z,20
2019-05-13T05:43:34.142Z,20
2019-05-13T05:44:34.990Z,20
2019-05-13T05:45:34.518Z,20
2019-05-13T05:46:35.045Z,20
2019-05-13T05:47:31.828Z,20
2019-05-13T05:48:34.154Z,20
2019-05-13T05:49:34.681Z,25
2019-05-13T05:50:31.888Z,25
2019-05-13T05:51:34.135Z,25
2019-05-13T05:52:34.211Z,25
2019-05-13T05:53:34.569Z,25
2019-05-13T05:54:44.764Z,25
2019-05-13T05:55:34.308Z,25
2019-05-13T05:56:35.003Z,25
2019-05-13T05:57:34.136Z,25
2019-05-13T05:58:34.240Z,30
2019-05-13T05:59:34.554Z,30
2019-05-13T06:00:34.930Z,30
2019-05-13T06:01:32.757Z,30
2019-05-13T06:02:34.926Z,30
2019-05-13T06:03:32.766Z,30
2019-05-13T06:04:35.203Z,35
2019-05-13T06:05:31.938Z,35
2019-05-13T06:06:35.676Z,30
2019-05-13T06:07:34.936Z,35
2019-05-13T06:08:35.002Z,30
2019-05-13T06:09:34.978Z,35
2019-05-13T06:10:43.968Z,35
2019-05-13T06:11:33.838Z,40
2019-05-13T06:12:34.090Z,50
2019-05-13T06:13:34.219Z,60
2019-05-13T06:14:35.184Z,70
2019-05-13T06:15:31.441Z,75
2019-05-13T06:16:34.708Z,85
2019-05-13T06:17:34.631Z,100
2019-05-13T06:18:35.087Z,125
2019-05-13T06:19:34.562Z,175
2019-05-13T06:20:33.611Z,235
2019-05-13T06:21:34.658Z,275
2019-05-13T06:22:34.631Z,285
2019-05-13T06:23:33.962Z,290
2019-05-13T06:24:47.241Z,300
2019-05-13T06:25:37.843Z,310
2019-05-13T06:26:34.122Z,310
2019-05-13T06:27:34.355Z,325
2019-05-13T06:28:34.777Z,325
2019-05-13T06:29:34.716Z,325
2019-05-13T06:30:35.142Z,315
2019-05-13T06:31:34.812Z,315
2019-05-13T06:32:36.702Z,310
2019-05-13T06:33:31.731Z,320
2019-05-13T06:34:35.192Z,325
2019-05-13T06:35:34.800Z,335
2019-05-13T06:36:34.301Z,340
2019-05-13T06:37:34.851Z,345
2019-05-13T06:38:34.317Z,355
2019-05-13T06:39:34.498Z,350
2019-05-13T06:40:34.465Z,345
2019-05-13T06:41:34.958Z,340
2019-05-13T06:42:35.035Z,325
2019-05-13T06:43:34.155Z,315
2019-05-13T06:44:34.166Z,295
2019-05-13T06:45:34.290Z,285
2019-05-13T06:46:34.921Z,280
2019-05-13T06:47:36.216Z,275
2019-05-13T06:48:32.275Z,275
2019-05-13T06:49:34.747Z,270
2019-05-13T06:50:34.897Z,265
2019-05-13T06:51:34.089Z,260
2019-05-13T06:52:34.497Z,260
2019-05-13T06:53:34.730Z,255
2019-05-13T06:54:47.130Z,245
2019-05-13T06:55:34.087Z,240
2019-05-13T06:56:34.914Z,235
2019-05-13T06:57:34.818Z,230
2019-05-13T06:58:35.035Z,225
2019-05-13T06:59:34.349Z,220
2019-05-13T07:00:37.029Z,215
2019-05-13T07:01:34.846Z,205
2019-05-13T07:02:34.591Z,200
2019-05-13T07:03:34.881Z,190
2019-05-13T07:04:35.174Z,185
2019-05-13T07:05:34.612Z,175
2019-05-13T07:06:37.545Z,170
2019-05-13T07:07:34.585Z,170
2019-05-13T07:08:34.077Z,170
2019-05-13T07:09:34.939Z,170
2019-05-13T07:10:34.616Z,170
2019-05-13T07:11:36.754Z,170
2019-05-13T07:12:33.959Z,170
2019-05-13T07:13:34.808Z,170
2019-05-13T07:14:34.950Z,170
2019-05-13T07:15:34.104Z,170
2019-05-13T07:16:34.474Z,170
2019-05-13T07:17:34.998Z,170
2019-05-13T07:18:35.000Z,170
2019-05-13T07:19:32.435Z,170
2019-05-13T07:20:34.892Z,170
2019-05-13T07:21:34.919Z,170
2019-05-13T07:22:34.841Z,170
2019-05-13T07:23:34.560Z,170
2019-05-13T07:24:41.764Z,170
2019-05-13T07:25:35.174Z,170
2019-05-13T07:26:34.155Z,170
2019-05-13T07:27:34.516Z,170
2019-05-13T07:28:34.983Z,170
2019-05-13T07:29:34.907Z,170
2019-05-13T07:30:34.344Z,170
2019-05-13T07:31:34.929Z,170
2019-05-13T07:32:34.136Z,170
2019-05-13T07:33:34.711Z,170
2019-05-13T07:34:38.837Z,170
2019-05-13T07:35:44.053Z,170
2019-05-13T07:36:34.339Z,165
2019-05-13T07:37:34.470Z,165
2019-05-13T07:38:35.033Z,170
2019-05-13T07:39:35.222Z,165
2019-05-13T07:40:34.859Z,165
2019-05-13T07:41:48.586Z,160
2019-05-13T07:42:33.911Z,155
2019-05-13T07:43:34.553Z,150
2019-05-13T07:44:35.191Z,145
2019-05-13T07:45:34.709Z,140
2019-05-13T07:46:35.024Z,135
2019-05-13T07:47:36.529Z,135
2019-05-13T07:48:41.502Z,135
2019-05-13T07:49:35.449Z,135
2019-05-13T07:50:34.826Z,140
2019-05-13T07:51:34.378Z,135
2019-05-13T07:52:34.631Z,135
2019-05-13T07:53:36.466Z,130
2019-05-13T07:54:42.074Z,125
2019-05-13T07:55:34.968Z,125
2019-05-13T07:56:34.947Z,125
2019-05-13T07:57:34.434Z,125
2019-05-13T07:58:41.816Z,125
2019-05-13T07:59:34.236Z,125
2019-05-13T08:00:35.140Z,125
2019-05-13T08:01:35.236Z,125
2019-05-13T08:04:41.879Z,120
2019-05-13T08:05:02.095Z,120
2019-05-13T08:05:53.962Z,120
2019-05-13T08:06:55.089Z,115
2019-05-13T08:07:54.198Z,115
2019-05-13T08:08:54.962Z,115
2019-05-13T08:09:56.838Z,115
2019-05-13T08:10:54.647Z,110
2019-05-13T08:25:05.866Z,95
2019-05-13T08:26:17.693Z,95
2019-05-13T08:27:35.042Z,90
2019-05-13T08:28:17.728Z,90
2019-05-13T08:29:21.470Z,90
2019-05-13T08:30:25.399Z,90
2019-05-13T08:31:17.320Z,90
2019-05-13T08:32:19.046Z,90
2019-05-13T08:33:17.865Z,85
2019-05-13T08:34:22.240Z,90
2019-05-13T08:35:22.551Z,85
2019-05-13T08:36:23.126Z,60
2019-05-13T08:37:21.438Z,25
2019-05-13T08:38:17.387Z,85
2019-05-13T08:39:18.071Z,85
2019-05-13T08:40:20.073Z,85
2019-05-13T08:41:28.770Z,85
2019-05-13T08:42:29.145Z,85
2019-05-13T08:43:22.306Z,85
2019-05-13T08:44:17.669Z,85
2019-05-13T08:45:17.391Z,85
2019-05-13T08:46:17.709Z,85
2019-05-13T08:47:22.353Z,85
2019-05-13T08:48:18.170Z,85
2019-05-13T08:49:21.363Z,85
2019-05-13T08:50:21.972Z,85
2019-05-13T08:51:21.821Z,85
2019-05-13T08:52:21.735Z,85
2019-05-13T08:53:17.970Z,85
2019-05-13T08:54:21.886Z,85
2019-05-13T08:55:24.004Z,85
2019-05-13T08:56:17.462Z,85
2019-05-13T08:57:21.961Z,85
2019-05-13T08:58:17.844Z,85
2019-05-13T08:59:21.971Z,85
2019-05-13T09:00:21.367Z,85
2019-05-13T09:01:17.742Z,85
2019-05-13T09:02:21.878Z,85
2019-05-13T09:03:17.428Z,85
2019-05-13T09:04:22.007Z,85
2019-05-13T09:05:17.664Z,90
2019-05-13T09:06:21.862Z,85
2019-05-13T09:07:20.668Z,85
2019-05-13T09:08:19.241Z,85
2019-05-13T09:09:21.747Z,80
2019-05-13T09:10:17.720Z,20
2019-05-13T09:11:17.618Z,25
2019-05-13T09:12:43.190Z,85
2019-05-13T09:13:17.285Z,85
2019-05-13T09:14:21.651Z,85
2019-05-13T09:15:22.165Z,85
2019-05-13T09:16:21.165Z,85
2019-05-13T09:17:17.740Z,85
2019-05-13T09:18:19.221Z,85
2019-05-13T09:19:24.226Z,85
2019-05-13T09:20:19.240Z,90
2019-05-13T09:21:19.458Z,85
2019-05-13T09:22:17.739Z,85
2019-05-13T09:23:21.906Z,85
2019-05-13T09:25:02.056Z,85
2019-05-13T09:25:17.947Z,90
2019-05-13T09:26:22.248Z,85
2019-05-13T09:27:22.286Z,85
2019-05-13T09:28:17.762Z,85
2019-05-13T09:29:22.296Z,85
2019-05-13T09:30:22.027Z,85
2019-05-13T09:31:17.903Z,85
2019-05-13T09:32:21.463Z,85
2019-05-13T09:33:21.637Z,85
2019-05-13T09:34:22.068Z,25
2019-05-13T09:35:22.159Z,90
2019-05-13T09:36:17.770Z,85
2019-05-13T09:41:46.250Z,85
2019-05-13T09:42:02.125Z,85
2019-05-13T09:43:05.247Z,85
2019-05-13T09:44:01.718Z,85
2019-05-13T09:44:57.904Z,85
2019-05-13T09:46:01.617Z,85
2019-05-13T09:47:02.375Z,85
2019-05-13T09:47:57.865Z,85
2019-05-13T09:49:23.592Z,85
2019-05-13T09:49:59.737Z,85
2019-05-13T09:51:02.020Z,90
2019-05-13T09:52:01.614Z,85
2019-05-13T09:53:02.670Z,85
2019-05-13T09:54:01.277Z,85
2019-05-13T09:55:32.639Z,85
2019-05-13T09:56:02.064Z,85
2019-05-13T09:57:01.621Z,85
2019-05-13T09:58:02.382Z,85
2019-05-13T10:00:14.922Z,85
2019-05-13T10:01:15.066Z,85
2019-05-13T10:02:15.175Z,85
2019-05-13T10:03:16.330Z,85
2019-05-13T10:04:14.637Z,85
2019-05-13T10:05:14.381Z,85
2019-05-13T10:06:15.430Z,85
2019-05-13T10:07:15.052Z,85
2019-05-13T10:08:15.238Z,85
2019-05-13T10:09:15.262Z,90
2019-05-13T10:10:14.716Z,85
2019-05-13T10:11:15.013Z,85
2019-05-13T10:12:17.193Z,85
2019-05-13T10:13:25.837Z,85
2019-05-13T10:14:14.403Z,90
2019-05-13T10:15:15.342Z,85
2019-05-13T10:16:15.090Z,85
2019-05-13T10:17:18.427Z,85
2019-05-13T10:18:15.384Z,85
2019-05-13T10:19:15.471Z,85
2019-05-13T10:20:15.077Z,90
2019-05-13T10:21:13.689Z,90
2019-05-13T10:22:14.702Z,85
2019-05-13T10:23:15.648Z,85
2019-05-13T10:24:15.348Z,85
2019-05-13T10:25:14.956Z,85
2019-05-13T10:26:18.065Z,85
2019-05-13T10:27:22.267Z,85
2019-05-13T10:28:16.008Z,85
2019-05-13T10:29:14.561Z,85
2019-05-13T10:36:42.021Z,85
2019-05-13T10:37:55.087Z,85
2019-05-13T10:38:55.071Z,85
2019-05-13T10:39:54.467Z,85
2019-05-13T10:40:54.795Z,85
2019-05-13T10:43:54.778Z,85
2019-05-13T10:44:08.372Z,85
2019-05-13T10:45:07.892Z,85
2019-05-13T10:46:08.122Z,85
2019-05-13T10:47:08.269Z,85
2019-05-13T10:48:13.566Z,85
2019-05-13T10:49:07.202Z,85
2019-05-13T10:52:08.037Z,85
2019-05-13T10:52:22.851Z,85
2019-05-13T10:53:24.839Z,85
2019-05-13T10:54:21.500Z,85
2019-05-13T10:55:21.534Z,85
2019-05-13T10:56:19.905Z,85
2019-05-13T10:57:21.734Z,85
2019-05-13T10:58:23.234Z,85
2019-05-13T10:59:22.867Z,85
2019-05-13T11:00:22.434Z,85
2019-05-13T11:01:25.054Z,85
2019-05-13T11:02:24.652Z,85
2019-05-13T11:03:22.693Z,85
2019-05-13T11:04:25.034Z,85
2019-05-13T11:05:22.805Z,85
2019-05-13T11:06:24.476Z,85
2019-05-13T11:07:22.404Z,85
2019-05-13T11:08:21.899Z,85
2019-05-13T11:09:21.757Z,85
2019-05-13T11:10:22.233Z,85
2019-05-13T11:11:24.447Z,85
2019-05-13T11:12:22.175Z,85
2019-05-13T11:14:27.519Z,85
2019-05-13T11:14:42.155Z,85
2019-05-13T11:16:02.328Z,85
2019-05-13T11:16:38.873Z,85
2019-05-13T11:17:45.234Z,85
2019-05-13T11:18:38.545Z,85
2019-05-13T11:19:46.593Z,85
2019-05-13T11:20:41.868Z,85
2019-05-13T11:21:43.051Z,85
2019-05-13T11:22:40.907Z,85
2019-05-13T11:23:40.132Z,85
2019-05-13T11:24:43.058Z,85
2019-05-13T11:25:41.564Z,85
2019-05-13T11:26:44.586Z,85
2019-05-13T11:27:42.069Z,85
2019-05-13T11:28:42.202Z,85
2019-05-13T11:29:41.445Z,85
2019-05-13T11:30:42.165Z,85
2019-05-13T11:31:42.724Z,85
2019-05-13T11:33:54.872Z,85
2019-05-13T11:34:55.767Z,85
2019-05-13T11:35:55.089Z,85
2019-05-13T11:36:56.139Z,85
2019-05-13T11:37:57.909Z,85
2019-05-13T11:38:55.922Z,85
2019-05-13T11:39:56.748Z,85
2019-05-13T11:40:55.096Z,85
2019-05-13T11:41:53.675Z,85
2019-05-13T11:42:55.381Z,85
2019-05-13T11:44:18.733Z,85
2019-05-13T11:46:55.759Z,85
2019-05-13T11:47:12.651Z,85
2019-05-13T11:48:13.125Z,85
2019-05-13T11:49:07.929Z,85
2019-05-13T11:50:11.501Z,85
2019-05-13T11:51:12.791Z,85
2019-05-13T11:52:07.977Z,85
2019-05-13T11:53:41.647Z,85
2019-05-13T11:54:13.545Z,85
2019-05-13T11:55:22.925Z,80
2019-05-13T11:56:14.206Z,40
2019-05-13T11:57:17.565Z,85
2019-05-13T12:00:18.547Z,85
2019-05-13T12:01:36.248Z,80
2019-05-13T12:02:35.503Z,65
2019-05-13T12:03:32.356Z,85
2019-05-13T12:04:37.271Z,50
2019-05-13T12:05:35.332Z,20
2019-05-13T12:06:44.324Z,15
2019-05-13T12:07:35.713Z,25
2019-05-13T12:08:36.831Z,85
2019-05-13T12:09:34.689Z,85
2019-05-13T12:10:32.601Z,85
2019-05-13T12:11:35.884Z,80
2019-05-13T12:12:39.333Z,80
2019-05-13T12:13:32.779Z,80
2019-05-13T12:15:54.148Z,80
2019-05-13T12:16:08.953Z,80
2019-05-13T12:17:07.834Z,80
2019-05-13T12:18:08.189Z,80
2019-05-13T12:19:11.712Z,80
2019-05-13T12:20:08.299Z,80
2019-05-13T12:21:08.868Z,80
2019-05-13T12:22:08.032Z,55
2019-05-13T12:25:16.947Z,80
2019-05-13T12:25:33.441Z,80
2019-05-13T12:26:33.241Z,80
2019-05-13T12:27:27.981Z,80
2019-05-13T12:28:28.588Z,85
2019-05-13T12:29:30.329Z,80
2019-05-13T12:30:33.789Z,85
2019-05-13T12:31:33.547Z,85
2019-05-13T12:32:32.231Z,85
2019-05-13T12:33:32.583Z,85
2019-05-13T12:34:37.270Z,85
2019-05-13T12:35:32.785Z,85
2019-05-13T12:36:35.661Z,95
2019-05-13T12:37:33.416Z,25
2019-05-13T12:38:33.020Z,20
2019-05-13T12:39:34.592Z,85
2019-05-13T12:40:33.628Z,90
2019-05-13T12:41:32.913Z,35
2019-05-13T12:42:42.936Z,65
2019-05-13T12:43:34.515Z,25
2019-05-13T12:44:31.649Z,55
2019-05-13T12:45:30.292Z,55
2019-05-13T12:50:52.896Z,15
2019-05-13T12:51:08.188Z,85
2019-05-13T12:52:15.880Z,85
2019-05-13T12:53:07.903Z,85
2019-05-13T12:54:06.495Z,85
2019-05-13T12:55:16.801Z,85
2019-05-13T12:56:12.492Z,85
2019-05-13T12:57:16.044Z,85
2019-05-13T12:58:08.088Z,85
2019-05-13T12:59:08.095Z,85
2019-05-13T13:00:07.858Z,85
2019-05-13T13:01:06.801Z,20
2019-05-13T13:02:08.647Z,20
2019-05-13T13:03:07.212Z,85
2019-05-13T13:04:07.680Z,25
2019-05-13T13:05:43.099Z,15
2019-05-13T13:06:53.016Z,15
2019-05-13T13:07:04.917Z,15
2019-05-13T13:08:54.194Z,80
2019-05-13T13:09:05.318Z,80
2019-05-13T13:10:05.342Z,80
2019-05-13T13:11:05.695Z,80
2019-05-13T13:12:05.774Z,80
2019-05-13T13:13:07.472Z,80
2019-05-13T13:14:21.754Z,80
2019-05-13T13:15:48.478Z,80
2019-05-13T13:18:13.882Z,30
2019-05-13T13:18:27.661Z,40
2019-05-13T13:19:27.822Z,15
2019-05-13T13:20:32.643Z,15
2019-05-13T13:21:39.392Z,20
2019-05-13T13:22:32.043Z,25
2019-05-13T13:23:29.658Z,80
2019-05-13T13:24:31.591Z,75
2019-05-13T13:25:38.886Z,75
2019-05-13T13:28:33.699Z,75
2019-05-13T13:29:48.461Z,75
2019-05-13T13:30:52.790Z,75
2019-05-13T13:31:48.597Z,75
2019-05-13T13:32:54.766Z,75
2019-05-13T13:37:08.982Z,80
2019-05-13T13:37:22.533Z,80
2019-05-13T13:38:25.002Z,80
2019-05-13T13:39:31.939Z,80
2019-05-13T13:40:34.630Z,75
2019-05-13T13:41:31.970Z,75
2019-05-13T13:42:23.715Z,75
2019-05-13T13:43:27.646Z,75
2019-05-13T13:44:27.095Z,70
2019-05-13T13:45:22.744Z,70
2019-05-13T13:46:57.749Z,75
2019-05-13T13:47:32.403Z,70
2019-05-13T13:48:28.592Z,70
2019-05-13T13:49:25.858Z,70
2019-05-13T13:50:27.111Z,70
2019-05-13T13:51:33.998Z,70
2019-05-13T13:52:27.925Z,70
2019-05-13T13:53:33.208Z,70
2019-05-13T13:54:22.353Z,70
2019-05-13T13:55:44.208Z,70
2019-05-13T13:56:32.586Z,70
2019-05-13T13:57:28.430Z,70
2019-05-13T13:58:32.590Z,70
2019-05-13T13:59:35.554Z,70
2019-05-13T14:01:26.899Z,65
2019-05-13T14:01:41.319Z,65
2019-05-13T14:02:48.183Z,65
2019-05-13T14:03:48.620Z,65
2019-05-13T14:04:38.428Z,65
2019-05-13T14:05:45.543Z,65
2019-05-13T14:07:42.359Z,65
2019-05-13T14:07:54.877Z,65
2019-05-13T14:08:54.694Z,65
2019-05-13T14:09:54.048Z,65
2019-05-13T14:10:56.575Z,65
2019-05-13T14:11:54.267Z,65
2019-05-13T14:12:55.145Z,65
2019-05-13T14:13:54.550Z,65
2019-05-13T14:14:54.755Z,65
2019-05-13T14:15:55.499Z,65
2019-05-13T14:17:01.804Z,65
2019-05-13T14:17:54.447Z,65
2019-05-13T14:18:55.399Z,65
2019-05-13T14:19:55.075Z,65
2019-05-13T14:20:55.623Z,65
2019-05-13T14:21:55.319Z,65
2019-05-13T14:23:02.725Z,65
2019-05-13T14:23:54.861Z,65
2019-05-13T14:24:54.556Z,65
2019-05-13T14:25:55.739Z,65
2019-05-13T14:26:55.555Z,65
2019-05-13T14:27:55.372Z,65
2019-05-13T14:28:56.421Z,65
2019-05-13T14:30:01.275Z,65
2019-05-13T14:30:54.260Z,65
2019-05-13T14:31:54.680Z,65
2019-05-13T14:32:54.648Z,60
2019-05-13T14:33:55.044Z,60
2019-05-13T14:34:55.439Z,60
2019-05-13T14:35:55.827Z,60
2019-05-13T14:36:54.527Z,60
2019-05-13T14:37:54.597Z,60
2019-05-13T14:38:55.508Z,60
2019-05-13T14:39:53.569Z,60
2019-05-13T14:40:57.054Z,60
2019-05-13T14:41:54.665Z,55
2019-05-13T14:42:55.384Z,60
2019-05-13T14:43:54.485Z,60
2019-05-13T14:44:54.850Z,60
2019-05-13T14:52:24.902Z,55
2019-05-13T14:53:37.542Z,55
2019-05-13T14:54:36.684Z,60
2019-05-13T14:55:37.820Z,55
2019-05-13T14:56:37.652Z,60
2019-05-13T14:57:37.534Z,55
2019-05-13T14:58:37.891Z,55
2019-05-13T14:59:36.829Z,55
2019-05-13T15:00:37.965Z,55
2019-05-13T15:01:37.441Z,55
2019-05-13T15:02:39.021Z,50
2019-05-13T15:03:38.288Z,50
2019-05-13T15:04:37.822Z,50
2019-05-13T15:05:36.642Z,50
2019-05-13T15:06:37.959Z,50
2019-05-13T15:07:37.864Z,50
2019-05-13T15:08:38.243Z,50
2019-05-13T15:09:37.058Z,50
2019-05-13T15:10:36.885Z,50
2019-05-13T15:11:37.910Z,50
2019-05-13T15:12:37.622Z,50
2019-05-13T15:13:37.556Z,50
2019-05-13T15:14:39.853Z,50
2019-05-13T15:15:36.991Z,50
2019-05-13T15:16:37.222Z,50
2019-05-13T15:17:37.975Z,50
2019-05-13T15:18:38.349Z,50
2019-05-13T15:19:37.309Z,50
2019-05-13T15:20:38.596Z,50
2019-05-13T15:21:37.398Z,45
2019-05-13T15:22:37.330Z,45
2019-05-13T15:23:37.082Z,45
2019-05-13T15:24:37.576Z,45